Time;durP1;ratioP1;P1;durP2;ratioP2;P2;SDS_P1;SDS_P2;PMS_P1;PMS_P2;Temp;Humidity;BMP_temperature;BMP_pressure;BME280_temperature;BME280_humidity;BME280_pressure;Samples;Min_cycle;Max_cycle;Signal;HPM_P1;HPM_P2
2021/12/25 00:01:26;;;;;;;1.27;1.13;;;17.60;52.40;;;;;;5035149;28;20037;-44
2021/12/25 00:03:55;;;;;;;1.27;1.08;;;17.60;52.40;;;;;;5030528;28;20037;-44
2021/12/25 00:06:24;;;;;;;1.83;1.60;;;17.70;52.50;;;;;;5029894;28;20315;-45
2021/12/25 00:08:52;;;;;;;1.60;1.38;;;17.60;52.50;;;;;;5039640;28;20587;-47
2021/12/25 00:11:19;;;;;;;1.75;1.20;;;17.60;52.40;;;;;;5040914;28;20044;-47
2021/12/25 00:13:46;;;;;;;0.80;0.77;;;17.60;52.50;;;;;;5036346;28;20425;-46
2021/12/25 00:16:13;;;;;;;0.95;0.70;;;17.60;52.50;;;;;;5032790;28;20145;-45
2021/12/25 00:18:40;;;;;;;0.82;0.82;;;17.60;52.50;;;;;;5031842;28;20490;-46
2021/12/25 00:21:08;;;;;;;1.15;0.77;;;17.60;52.50;;;;;;5039403;28;20056;-45
2021/12/25 00:23:37;;;;;;;0.93;0.80;;;17.60;52.50;;;;;;5038633;28;20103;-49
2021/12/25 00:26:09;;;;;;;2.50;0.63;;;17.60;52.50;;;;;;5037235;28;20064;-46
2021/12/25 00:28:59;;;;;;;1.40;0.70;;;17.60;52.50;;;;;;5033866;28;20456;-50
2021/12/25 00:31:47;;;;;;;1.52;0.82;;;17.60;52.50;;;;;;5035061;28;20075;-48
2021/12/25 00:34:15;;;;;;;2.58;0.50;;;17.60;52.50;;;;;;5033174;28;23210;-49
2021/12/25 00:36:42;;;;;;;0.85;0.40;;;17.60;52.50;;;;;;5043006;28;20049;-46
2021/12/25 00:39:10;;;;;;;1.23;0.68;;;17.60;52.60;;;;;;5047234;28;20123;-45
2021/12/25 00:41:37;;;;;;;1.30;0.65;;;17.60;52.50;;;;;;5034794;28;20159;-45
2021/12/25 00:44:06;;;;;;;0.88;0.55;;;17.60;52.50;;;;;;5038259;28;20045;-51
2021/12/25 00:46:34;;;;;;;0.70;0.57;;;17.60;52.60;;;;;;5033479;28;20077;-45
2021/12/25 00:49:01;;;;;;;1.92;0.47;;;17.60;52.60;;;;;;5029543;28;20114;-45
2021/12/25 00:51:28;;;;;;;0.57;0.20;;;17.60;52.60;;;;;;5030478;28;20048;-46
2021/12/25 00:53:55;;;;;;;0.98;0.57;;;17.60;52.60;;;;;;5039188;28;20370;-49
2021/12/25 00:56:24;;;;;;;1.02;0.47;;;17.60;52.50;;;;;;5040779;28;20041;-44
2021/12/25 00:58:51;;;;;;;1.45;0.43;;;17.60;52.50;;;;;;5036112;28;20033;-50
2021/12/25 01:01:18;;;;;;;1.20;0.60;;;17.60;52.50;;;;;;5036070;28;20509;-47
2021/12/25 01:03:47;;;;;;;0.60;0.50;;;17.60;52.60;;;;;;5034690;28;20211;-45
2021/12/25 01:06:15;;;;;;;0.77;0.52;;;17.60;52.60;;;;;;5044784;28;20037;-45
2021/12/25 01:08:42;;;;;;;1.33;0.40;;;17.60;52.60;;;;;;5037417;28;20050;-45
2021/12/25 01:11:09;;;;;;;1.65;1.55;;;17.60;52.60;;;;;;5038347;28;20405;-50
2021/12/25 01:13:43;;;;;;;0.35;0.35;;;17.60;52.60;;;;;;5042119;28;20049;-46
2021/12/25 01:16:30;;;;;;;0.52;0.40;;;17.60;52.60;;;;;;5046464;28;20127;-47
2021/12/25 01:22:14;;;;;;;0.57;0.40;;;17.60;52.60;;;;;;4985415;28;20092;-49
2021/12/25 01:30:19;;;;;;;0.63;0.47;;;17.60;52.70;;;;;;4949526;28;20055;-48
2021/12/25 01:33:22;;;;;;;0.65;0.35;;;17.60;52.70;;;;;;4938854;28;20059;-48
2021/12/25 01:36:31;;;;;;;0.35;0.35;;;17.60;52.70;;;;;;4874476;29;20082;-46
2021/12/25 01:39:40;;;;;;;0.30;0.30;;;17.60;52.70;;;;;;4870805;29;20423;-48
2021/12/25 01:48:27;;;;;;;0.75;0.50;;;17.60;52.80;;;;;;4869537;29;20065;-49
2021/12/25 01:50:56;;;;;;;1.10;0.40;;;17.50;52.80;;;;;;4880992;29;20145;-46
2021/12/25 01:53:23;;;;;;;2.50;0.47;;;17.60;52.80;;;;;;4867682;29;20064;-45
2021/12/25 01:55:50;;;;;;;0.30;0.20;;;17.60;53.40;;;;;;4864930;29;20080;-48
2021/12/25 01:58:17;;;;;;;1.33;0.80;;;17.60;52.80;;;;;;4872570;29;20060;-45
2021/12/25 02:00:48;;;;;;;1.20;0.30;;;17.50;52.70;;;;;;4926496;29;20159;-51
2021/12/25 02:03:19;;;;;;;0.30;0.15;;;17.60;52.80;;;;;;4930748;29;20126;-47
2021/12/25 02:05:47;;;;;;;1.02;0.38;;;17.60;52.80;;;;;;4961191;28;20062;-45
2021/12/25 02:08:15;;;;;;;0.50;0.28;;;17.60;52.80;;;;;;4963269;28;20153;-44
2021/12/25 02:10:42;;;;;;;0.40;0.20;;;17.50;52.70;;;;;;4956924;28;20523;-45
2021/12/25 02:13:12;;;;;;;0.30;0.30;;;17.50;52.80;;;;;;4980338;28;20088;-45
2021/12/25 02:15:43;;;;;;;0.50;0.28;;;17.50;52.80;;;;;;5043250;28;20057;-50
2021/12/25 02:18:19;;;;;;;0.52;0.35;;;17.60;53.40;;;;;;5037909;28;20095;-45
2021/12/25 02:21:11;;;;;;;1.38;0.20;;;17.60;52.80;;;;;;5034717;28;20046;-44
2021/12/25 02:23:39;;;;;;;0.63;0.28;;;17.50;52.80;;;;;;5033022;28;20658;-43
2021/12/25 02:26:07;;;;;;;0.30;0.30;;;17.60;52.90;;;;;;5036972;28;20147;-46
2021/12/25 02:28:35;;;;;;;0.20;0.20;;;17.60;52.80;;;;;;5032281;28;20210;-44
2021/12/25 02:31:06;;;;;;;0.40;0.20;;;17.50;52.80;;;;;;5033293;28;20033;-44
2021/12/25 02:33:33;;;;;;;1.05;0.50;;;17.60;52.80;;;;;;5043666;28;20116;-44
2021/12/25 02:36:00;;;;;;;0.98;0.68;;;17.60;52.80;;;;;;5044388;28;20037;-45
2021/12/25 02:38:29;;;;;;;2.35;0.20;;;17.50;52.80;;;;;;5040255;28;20049;-44
2021/12/25 02:40:57;;;;;;;0.25;0.25;;;17.60;52.90;;;;;;5036255;28;20414;-44
2021/12/25 02:43:25;;;;;;;0.68;0.20;;;17.50;52.80;;;;;;5046095;28;20121;-45
2021/12/25 02:45:54;;;;;;;0.65;0.20;;;17.50;53.40;;;;;;5035829;28;20082;-48
2021/12/25 02:48:21;;;;;;;0.75;0.50;;;17.50;52.80;;;;;;5041847;28;20049;-47
2021/12/25 02:50:49;;;;;;;0.80;0.38;;;17.60;52.90;;;;;;5044440;28;20436;-49
2021/12/25 02:53:17;;;;;;;0.40;0.30;;;17.60;52.90;;;;;;5039757;28;20056;-47
2021/12/25 02:55:46;;;;;;;0.75;0.30;;;17.50;52.80;;;;;;5038127;28;20041;-47
2021/12/25 02:58:19;;;;;;;0.40;0.20;;;17.60;52.90;;;;;;5046807;28;20060;-44
2021/12/25 03:00:50;;;;;;;0.47;0.47;;;17.50;52.80;;;;;;5046303;28;20449;-44
2021/12/25 03:03:17;;;;;;;0.55;0.55;;;17.60;52.90;;;;;;5037798;28;20075;-44
2021/12/25 03:05:44;;;;;;;0.20;0.20;;;17.50;52.80;;;;;;5047717;28;20514;-45
2021/12/25 03:08:13;;;;;;;1.10;0.40;;;17.50;52.80;;;;;;5037751;28;20067;-46
2021/12/25 03:10:53;;;;;;;2.05;0.70;;;17.60;52.90;;;;;;5038718;28;20041;-44
2021/12/25 03:13:32;;;;;;;0.22;0.20;;;17.50;52.90;;;;;;5046389;28;20052;-45
2021/12/25 03:16:01;;;;;;;0.52;0.20;;;17.50;52.90;;;;;;5032276;28;20619;-44
2021/12/25 03:18:31;;;;;;;0.82;0.20;;;17.60;52.90;;;;;;5043235;28;20540;-46
2021/12/25 03:21:03;;;;;;;1.17;0.43;;;17.60;52.90;;;;;;5054332;28;20080;-50
2021/12/25 03:23:32;;;;;;;0.20;0.20;;;17.50;52.90;;;;;;5035314;28;20037;-49
2021/12/25 03:26:02;;;;;;;0.30;0.20;;;17.50;52.90;;;;;;5037894;28;20032;-46
2021/12/25 03:28:33;;;;;;;0.30;0.20;;;17.60;52.90;;;;;;5034497;28;20430;-47
2021/12/25 03:31:05;;;;;;;0.47;0.38;;;17.60;52.90;;;;;;5044630;28;20041;-48
2021/12/25 03:33:33;;;;;;;0.20;0.20;;;17.50;52.90;;;;;;5044683;28;20041;-48
2021/12/25 03:36:01;;;;;;;0.50;0.15;;;17.50;52.90;;;;;;5047264;28;20418;-45
2021/12/25 03:38:30;;;;;;;1.13;0.40;;;17.60;52.90;;;;;;5044095;28;20134;-48
2021/12/25 03:40:57;;;;;;;0.20;0.20;;;17.60;52.90;;;;;;5035291;28;20041;-47
2021/12/25 03:43:26;;;;;;;1.52;0.32;;;17.60;52.90;;;;;;5032616;28;20044;-48
2021/12/25 03:45:54;;;;;;;0.40;0.30;;;17.50;52.90;;;;;;5042855;28;20532;-46
2021/12/25 03:48:44;;;;;;;0.82;0.10;;;17.50;52.90;;;;;;5061473;28;20140;-46
2021/12/25 03:59:25;;;;;;;0.30;0.13;;;17.60;53.00;;;;;;5038040;28;20037;-50
2021/12/25 04:01:56;;;;;;;0.25;0.25;;;17.50;52.90;;;;;;5037474;28;20041;-46
2021/12/25 04:04:33;;;;;;;0.93;0.38;;;17.50;52.90;;;;;;5033689;28;20048;-44
2021/12/25 04:07:05;;;;;;;0.30;0.20;;;17.60;53.00;;;;;;5040813;28;20128;-45
2021/12/25 04:09:35;;;;;;;0.30;0.30;;;17.50;53.00;;;;;;5044821;28;20116;-46
2021/12/25 04:12:04;;;;;;;1.45;0.30;;;17.60;53.00;;;;;;5046352;28;20124;-44
2021/12/25 04:14:35;;;;;;;0.52;0.30;;;17.50;52.90;;;;;;5041780;28;20033;-45
2021/12/25 04:17:03;;;;;;;0.82;0.63;;;17.60;53.00;;;;;;5038877;28;20120;-46
2021/12/25 04:19:31;;;;;;;0.85;0.35;;;17.50;52.90;;;;;;5042352;28;20131;-46
2021/12/25 04:22:02;;;;;;;1.20;0.13;;;17.60;53.00;;;;;;5045240;28;20116;-44
2021/12/25 04:24:35;;;;;;;1.85;0.20;;;17.60;53.00;;;;;;5045542;28;20391;-44
2021/12/25 04:27:06;;;;;;;0.85;0.20;;;17.50;53.00;;;;;;5036475;28;20104;-44
2021/12/25 04:29:39;;;;;;;0.57;0.50;;;17.50;53.00;;;;;;5042523;28;20053;-45
2021/12/25 05:03:05;;;;;;;1.50;0.32;;;17.50;53.70;;;;;;4916484;29;20587;-45
2021/12/25 05:05:42;;;;;;;0.52;0.30;;;17.50;53.10;;;;;;4915364;29;20542;-47
2021/12/25 05:08:35;;;;;;;0.55;0.40;;;17.50;53.10;;;;;;4918128;29;20571;-46
2021/12/25 05:11:02;;;;;;;0.57;0.52;;;17.50;53.10;;;;;;4914409;29;20050;-45
2021/12/25 05:13:30;;;;;;;0.40;0.28;;;17.50;53.10;;;;;;4916316;29;20099;-50
2021/12/25 05:15:57;;;;;;;1.27;0.60;;;17.50;53.10;;;;;;4896802;29;20127;-50
2021/12/25 05:18:24;;;;;;;1.65;0.50;;;17.50;53.10;;;;;;4913007;29;20056;-45
2021/12/25 05:20:53;;;;;;;0.50;0.50;;;17.50;53.10;;;;;;4899959;29;20056;-46
2021/12/25 05:23:20;;;;;;;0.60;0.45;;;17.60;53.20;;;;;;4948095;28;20092;-46
2021/12/25 05:25:49;;;;;;;1.23;0.30;;;17.60;53.20;;;;;;4953248;28;20073;-44
2021/12/25 05:28:23;;;;;;;0.43;0.30;;;17.60;53.20;;;;;;4950964;28;20070;-45
2021/12/25 05:30:52;;;;;;;0.75;0.30;;;17.50;53.10;;;;;;5006183;28;20051;-45
2021/12/25 05:33:41;;;;;;;0.43;0.25;;;17.60;53.20;;;;;;5034601;28;21213;-46
2021/12/25 05:36:28;;;;;;;0.47;0.20;;;17.60;53.20;;;;;;5028839;28;20049;-45
2021/12/25 05:39:15;;;;;;;1.10;0.52;;;17.60;53.20;;;;;;5032494;28;20065;-46
2021/12/25 05:41:45;;;;;;;1.92;0.55;;;17.50;53.20;;;;;;5043217;28;20587;-50
2021/12/25 05:44:19;;;;;;;0.82;0.40;;;17.50;53.10;;;;;;5043674;28;20049;-46
2021/12/25 05:47:04;;;;;;;0.30;0.30;;;17.50;53.20;;;;;;5042184;28;20044;-46
2021/12/25 05:49:35;;;;;;;0.30;0.20;;;17.50;53.20;;;;;;5033736;28;20042;-45
2021/12/25 05:52:17;;;;;;;0.50;0.50;;;17.50;53.20;;;;;;5045006;28;20037;-45
2021/12/25 05:54:55;;;;;;;0.70;0.47;;;17.50;53.20;;;;;;5042940;28;20419;-47
2021/12/25 05:57:32;;;;;;;0.60;0.43;;;17.60;53.20;;;;;;5031921;28;20053;-47
2021/12/25 06:00:17;;;;;;;2.20;0.57;;;17.50;53.20;;;;;;5047452;28;20093;-49
2021/12/25 06:02:45;;;;;;;0.95;0.40;;;17.50;53.20;;;;;;5032544;28;20418;-45
2021/12/25 06:05:20;;;;;;;0.63;0.40;;;17.50;53.20;;;;;;5037732;28;20048;-47
2021/12/25 06:07:48;;;;;;;1.38;0.20;;;17.50;53.20;;;;;;5040083;28;20049;-48
2021/12/25 06:10:16;;;;;;;0.50;0.35;;;17.60;53.30;;;;;;5028859;28;20044;-50
2021/12/25 06:12:44;;;;;;;1.45;0.30;;;17.60;53.30;;;;;;5030782;28;20044;-46
2021/12/25 06:15:14;;;;;;;0.40;0.32;;;17.60;53.30;;;;;;5045043;28;20120;-48
2021/12/25 06:18:09;;;;;;;0.50;0.20;;;17.60;53.30;;;;;;5022800;28;20057;-52
2021/12/25 06:20:45;;;;;;;1.27;0.40;;;17.60;53.30;;;;;;5009690;28;20053;-49
2021/12/25 06:23:35;;;;;;;1.65;0.40;;;17.60;53.30;;;;;;5009470;28;20053;-47
2021/12/25 06:26:12;;;;;;;0.30;0.25;;;17.50;53.20;;;;;;5021962;28;20184;-50
2021/12/25 06:28:51;;;;;;;1.05;0.30;;;17.60;53.30;;;;;;5005010;28;20061;-47
2021/12/25 06:31:34;;;;;;;1.10;0.30;;;17.50;53.20;;;;;;5019833;28;20049;-47
2021/12/25 06:34:11;;;;;;;0.60;0.50;;;17.50;53.30;;;;;;5021044;28;20647;-48
2021/12/25 06:36:41;;;;;;;1.33;1.05;;;17.50;53.30;;;;;;5024301;28;20131;-49
2021/12/25 06:39:19;;;;;;;0.40;0.40;;;17.60;53.30;;;;;;5023301;28;20045;-47
2021/12/25 06:41:57;;;;;;;0.57;0.30;;;17.60;53.90;;;;;;5010001;28;20273;-48
2021/12/25 06:44:25;;;;;;;0.82;0.38;;;17.60;53.30;;;;;;5008583;28;20041;-45
2021/12/25 06:46:53;;;;;;;0.40;0.40;;;17.50;53.30;;;;;;5005270;28;20131;-48
2021/12/25 06:49:23;;;;;;;0.30;0.20;;;17.60;53.30;;;;;;5025479;28;20267;-47
2021/12/25 06:52:28;;;;;;;1.05;0.60;;;17.60;53.30;;;;;;4994418;28;20840;-46
2021/12/25 06:55:25;;;;;;;0.40;0.30;;;17.60;53.40;;;;;;5021046;28;20591;-49
2021/12/25 06:58:11;;;;;;;1.75;0.45;;;17.50;53.40;;;;;;5034675;28;20049;-47
2021/12/25 07:00:38;;;;;;;0.68;0.43;;;17.50;53.30;;;;;;5046490;28;20502;-47
2021/12/25 07:03:07;;;;;;;0.50;0.50;;;17.60;53.40;;;;;;5046330;28;20136;-45
2021/12/25 07:05:53;;;;;;;0.97;0.50;;;17.50;53.30;;;;;;5039537;28;20038;-48
2021/12/25 07:08:38;;;;;;;1.05;0.40;;;17.50;53.40;;;;;;5045776;28;20873;-48
2021/12/25 07:11:16;;;;;;;0.90;0.32;;;17.50;53.40;;;;;;5043564;28;20103;-54
2021/12/25 07:13:51;;;;;;;0.28;0.28;;;17.60;53.40;;;;;;5037683;28;20706;-47
2021/12/25 07:16:36;;;;;;;0.50;0.43;;;17.50;53.40;;;;;;5039505;28;20065;-48
2021/12/25 07:19:32;;;;;;;0.80;0.80;;;17.50;53.40;;;;;;5005006;28;20076;-52
2021/12/25 07:22:07;;;;;;;1.15;0.50;;;17.50;53.40;;;;;;4988680;28;20116;-48
2021/12/25 07:24:37;;;;;;;0.30;0.28;;;17.50;53.50;;;;;;5005631;28;20361;-46
2021/12/25 07:27:25;;;;;;;2.72;0.20;;;17.60;53.50;;;;;;4990136;28;20116;-46
2021/12/25 07:29:59;;;;;;;0.70;0.50;;;17.50;53.40;;;;;;5006281;28;20567;-52
2021/12/25 07:32:26;;;;;;;0.45;0.43;;;17.50;53.40;;;;;;5004710;28;20052;-51
2021/12/25 07:34:53;;;;;;;2.10;0.45;;;17.50;53.40;;;;;;5005170;28;20435;-49
2021/12/25 07:37:20;;;;;;;0.25;0.20;;;17.50;53.40;;;;;;5004788;28;20596;-51
2021/12/25 07:39:47;;;;;;;0.90;0.52;;;17.50;53.50;;;;;;5005232;28;20045;-48
2021/12/25 07:42:15;;;;;;;1.58;0.57;;;17.60;53.50;;;;;;5006623;28;20088;-47
2021/12/25 07:45:09;;;;;;;0.30;0.30;;;17.60;53.50;;;;;;4989153;28;20054;-45
2021/12/25 07:47:40;;;;;;;0.60;0.45;;;17.50;53.50;;;;;;5005088;28;20049;-46
2021/12/25 07:50:09;;;;;;;1.13;0.52;;;17.50;53.50;;;;;;5004501;28;20144;-49
2021/12/25 07:52:36;;;;;;;0.90;0.60;;;17.50;53.50;;;;;;4998524;28;20041;-47
2021/12/25 07:55:03;;;;;;;0.47;0.38;;;17.60;53.50;;;;;;5003588;28;20042;-48
2021/12/25 07:57:30;;;;;;;0.50;0.38;;;17.50;54.00;;;;;;5032140;28;20041;-48
2021/12/25 07:59:57;;;;;;;0.35;0.28;;;17.60;53.50;;;;;;5041000;28;20048;-49
2021/12/25 08:02:25;;;;;;;0.82;0.40;;;17.60;54.10;;;;;;5036386;28;20046;-47
2021/12/25 08:04:53;;;;;;;1.08;0.30;;;17.60;53.50;;;;;;5036074;28;20245;-50
2021/12/25 08:07:20;;;;;;;0.88;0.38;;;17.60;53.50;;;;;;5034643;28;20517;-47
2021/12/25 08:09:47;;;;;;;1.27;0.68;;;17.50;53.40;;;;;;5037035;28;20072;-50
2021/12/25 08:12:14;;;;;;;0.65;0.30;;;17.60;53.50;;;;;;5035678;28;20037;-45
2021/12/25 08:14:41;;;;;;;1.30;0.52;;;17.60;53.50;;;;;;5038230;28;20042;-47
2021/12/25 08:17:08;;;;;;;0.68;0.47;;;17.60;53.50;;;;;;5040602;28;20037;-49
2021/12/25 08:20:12;;;;;;;0.65;0.20;;;17.60;53.50;;;;;;5036873;28;20046;-50
2021/12/25 08:22:58;;;;;;;1.50;0.57;;;17.60;53.50;;;;;;5044431;28;20041;-48
2021/12/25 08:25:43;;;;;;;0.40;0.40;;;17.60;53.50;;;;;;5037395;28;20505;-49
2021/12/25 08:28:29;;;;;;;1.27;0.75;;;17.60;53.60;;;;;;5045980;28;20086;-46
2021/12/25 08:31:14;;;;;;;0.52;0.52;;;17.50;53.50;;;;;;5033637;28;20063;-45
2021/12/25 08:34:00;;;;;;;0.50;0.50;;;17.60;53.60;;;;;;5029130;28;20048;-49
2021/12/25 08:36:47;;;;;;;1.20;0.57;;;17.60;54.20;;;;;;5031078;28;20529;-49
2021/12/25 08:39:14;;;;;;;0.90;0.52;;;17.60;53.60;;;;;;5034322;28;20045;-51
2021/12/25 08:41:41;;;;;;;0.95;0.65;;;17.60;53.60;;;;;;5037372;28;20438;-50
2021/12/25 08:44:29;;;;;;;2.05;0.52;;;17.60;53.60;;;;;;5033468;28;20053;-50
2021/12/25 08:46:56;;;;;;;0.57;0.57;;;17.50;53.50;;;;;;5035813;28;20037;-49
2021/12/25 08:49:25;;;;;;;1.77;0.93;;;17.50;53.60;;;;;;5033221;28;20040;-46
2021/12/25 08:51:53;;;;;;;0.77;0.35;;;17.50;53.50;;;;;;5034357;28;20116;-47
2021/12/25 08:54:20;;;;;;;0.90;0.30;;;17.60;53.60;;;;;;5033532;28;20120;-48
2021/12/25 08:56:48;;;;;;;1.40;0.60;;;17.60;53.60;;;;;;5034652;28;20041;-46
2021/12/25 08:59:15;;;;;;;1.77;0.52;;;17.60;53.60;;;;;;5038596;28;20036;-49
2021/12/25 09:01:42;;;;;;;1.23;1.13;;;17.60;53.50;;;;;;5035053;28;20118;-48
2021/12/25 09:04:09;;;;;;;1.33;0.73;;;17.60;53.50;;;;;;5031469;28;20386;-51
2021/12/25 09:06:38;;;;;;;2.13;0.85;;;17.60;53.50;;;;;;5030928;28;20051;-50
2021/12/25 09:09:06;;;;;;;1.48;0.30;;;17.60;53.60;;;;;;5039548;28;20138;-46
2021/12/25 09:11:34;;;;;;;0.45;0.45;;;17.60;53.50;;;;;;5034859;28;20057;-48
2021/12/25 09:14:01;;;;;;;2.05;0.40;;;17.60;53.50;;;;;;5034912;28;20489;-45
2021/12/25 09:16:28;;;;;;;0.80;0.55;;;17.60;53.50;;;;;;5033300;28;20461;-44
2021/12/25 09:18:55;;;;;;;2.17;0.90;;;17.60;53.50;;;;;;5029710;28;20047;-46
2021/12/25 09:21:22;;;;;;;0.98;0.73;;;17.60;53.50;;;;;;5029343;28;20045;-51
2021/12/25 09:23:50;;;;;;;1.15;0.85;;;17.70;53.50;;;;;;5034572;28;20049;-49
2021/12/25 09:26:18;;;;;;;1.10;0.50;;;17.70;53.50;;;;;;5047432;28;20041;-46
2021/12/25 09:28:46;;;;;;;0.50;0.50;;;17.70;53.50;;;;;;5035557;28;20115;-48
2021/12/25 09:31:13;;;;;;;0.93;0.38;;;17.70;53.50;;;;;;5031583;28;20557;-52
2021/12/25 09:33:40;;;;;;;0.73;0.55;;;17.60;53.50;;;;;;5032366;28;20042;-47
2021/12/25 09:36:07;;;;;;;0.93;0.90;;;17.70;53.50;;;;;;5038437;28;20050;-46
2021/12/25 09:38:35;;;;;;;2.90;0.70;;;17.70;53.50;;;;;;5042465;28;20032;-51
2021/12/25 09:41:05;;;;;;;3.15;0.90;;;17.70;53.50;;;;;;5043348;28;20420;-50
2021/12/25 09:43:34;;;;;;;1.58;0.95;;;17.70;53.50;;;;;;5034350;28;20041;-50
2021/12/25 09:46:01;;;;;;;1.40;0.98;;;17.70;53.50;;;;;;5044583;28;20064;-46
2021/12/25 09:48:28;;;;;;;1.88;1.10;;;17.70;53.50;;;;;;5032731;28;20120;-48
2021/12/25 09:50:55;;;;;;;1.50;0.90;;;17.70;53.50;;;;;;5038184;28;20047;-51
2021/12/25 09:53:23;;;;;;;3.20;1.50;;;17.70;53.50;;;;;;5040483;28;20140;-47
2021/12/25 09:55:53;;;;;;;0.88;0.88;;;17.70;53.50;;;;;;5039428;28;20065;-51
2021/12/25 09:58:20;;;;;;;2.92;1.00;;;17.70;53.40;;;;;;5039698;28;20045;-50
2021/12/25 10:00:51;;;;;;;3.05;1.08;;;17.70;53.40;;;;;;5039502;28;20072;-48
2021/12/25 10:03:19;;;;;;;1.50;0.90;;;17.70;53.40;;;;;;5048912;28;20084;-47
2021/12/25 10:05:47;;;;;;;2.92;0.95;;;17.70;53.40;;;;;;5040032;28;20044;-46
2021/12/25 10:08:18;;;;;;;1.67;0.90;;;17.70;53.40;;;;;;5045553;28;20059;-49
2021/12/25 10:10:47;;;;;;;2.25;1.52;;;17.80;53.50;;;;;;5039947;28;20066;-49
2021/12/25 10:13:24;;;;;;;1.33;1.08;;;17.80;53.50;;;;;;5037183;28;20033;-49
2021/12/25 10:15:54;;;;;;;1.23;1.13;;;17.80;53.40;;;;;;5038480;28;20136;-49
2021/12/25 10:18:30;;;;;;;2.22;1.33;;;17.80;53.40;;;;;;5039737;28;20049;-47
2021/12/25 10:20:57;;;;;;;1.95;1.13;;;17.80;53.40;;;;;;5040093;28;20701;-45
2021/12/25 10:23:29;;;;;;;1.20;0.85;;;17.80;53.40;;;;;;5040717;28;20532;-45
2021/12/25 10:25:58;;;;;;;4.20;1.13;;;17.80;53.40;;;;;;5043633;28;20052;-43
2021/12/25 10:28:30;;;;;;;2.17;1.02;;;17.80;53.40;;;;;;5040761;28;20037;-44
2021/12/25 10:31:01;;;;;;;1.10;0.75;;;17.90;53.40;;;;;;5036122;28;20067;-43
2021/12/25 10:33:32;;;;;;;1.85;0.80;;;17.80;53.30;;;;;;5037331;28;20506;-44
2021/12/25 10:36:01;;;;;;;1.15;1.05;;;17.90;53.40;;;;;;5055326;28;20116;-49
2021/12/25 10:38:29;;;;;;;1.35;1.15;;;17.80;53.20;;;;;;5047453;28;20025;-49
2021/12/25 10:41:19;;;;;;;1.25;0.65;;;17.80;53.20;;;;;;5041494;28;20045;-47
2021/12/25 10:43:48;;;;;;;1.88;0.90;;;17.90;53.20;;;;;;5041663;28;20045;-44
2021/12/25 10:46:17;;;;;;;1.85;1.15;;;17.80;53.20;;;;;;5041920;28;20043;-49
2021/12/25 10:48:45;;;;;;;2.05;0.55;;;17.90;53.90;;;;;;5037979;28;20420;-47
2021/12/25 10:51:27;;;;;;;0.93;0.80;;;17.80;53.20;;;;;;5041126;28;20056;-51
2021/12/25 10:53:55;;;;;;;2.67;1.05;;;17.90;53.80;;;;;;5046318;28;20063;-47
2021/12/25 10:56:22;;;;;;;1.83;1.08;;;17.80;53.20;;;;;;5042615;28;20091;-49
2021/12/25 10:58:49;;;;;;;1.35;0.60;;;17.90;53.30;;;;;;5040932;28;20498;-49
2021/12/25 11:01:18;;;;;;;0.45;0.40;;;17.80;53.20;;;;;;5040165;28;20072;-49
2021/12/25 11:03:46;;;;;;;2.05;1.08;;;17.90;53.20;;;;;;5032523;28;20053;-47
2021/12/25 11:06:17;;;;;;;0.60;0.60;;;17.90;53.20;;;;;;5038515;28;20041;-49
2021/12/25 11:08:46;;;;;;;2.35;0.77;;;17.90;53.20;;;;;;5041927;28;20061;-49
2021/12/25 11:11:16;;;;;;;0.80;0.80;;;17.90;53.20;;;;;;5035604;28;20049;-45
2021/12/25 11:13:45;;;;;;;2.78;0.90;;;17.90;53.20;;;;;;5035130;28;20544;-46
2021/12/25 11:16:23;;;;;;;0.47;0.45;;;17.90;53.20;;;;;;5048532;28;20040;-46
2021/12/25 11:19:02;;;;;;;1.20;0.65;;;17.90;53.30;;;;;;5036246;28;20136;-47
2021/12/25 11:21:30;;;;;;;2.15;0.60;;;17.90;53.30;;;;;;5044295;28;20041;-45
2021/12/25 11:24:14;;;;;;;0.70;0.68;;;17.90;53.20;;;;;;5042652;28;20036;-48
2021/12/25 11:26:42;;;;;;;1.02;0.30;;;17.90;53.20;;;;;;5041056;28;20049;-53
2021/12/25 11:29:12;;;;;;;0.80;0.55;;;17.90;53.20;;;;;;5037395;28;20038;-52
2021/12/25 11:31:42;;;;;;;0.90;0.45;;;17.90;53.20;;;;;;5046280;28;20080;-45
2021/12/25 11:34:10;;;;;;;1.77;0.80;;;17.90;53.20;;;;;;5035159;28;20065;-49
2021/12/25 11:36:39;;;;;;;1.67;0.95;;;17.90;53.20;;;;;;5039118;28;20037;-44
2021/12/25 11:39:06;;;;;;;0.73;0.70;;;17.90;53.20;;;;;;5047286;28;20060;-45
2021/12/25 11:41:35;;;;;;;1.73;0.85;;;17.90;53.20;;;;;;5038286;28;20045;-47
2021/12/25 11:44:06;;;;;;;0.50;0.50;;;17.90;53.20;;;;;;5040200;28;20126;-47
2021/12/25 11:46:41;;;;;;;0.75;0.35;;;17.90;53.20;;;;;;5036096;28;20037;-49
2021/12/25 11:49:11;;;;;;;1.92;1.40;;;18.00;53.30;;;;;;5039451;28;20106;-46
2021/12/25 11:51:40;;;;;;;1.30;0.60;;;17.90;53.80;;;;;;5033745;28;20108;-47
2021/12/25 11:54:29;;;;;;;1.35;0.63;;;17.90;53.20;;;;;;5042848;28;20113;-49
2021/12/25 11:57:21;;;;;;;1.15;0.40;;;18.00;53.20;;;;;;5035792;28;20056;-48
2021/12/25 11:59:50;;;;;;;0.95;0.50;;;17.90;53.20;;;;;;5036847;28;20071;-46
2021/12/25 12:02:41;;;;;;;0.80;0.50;;;17.90;53.20;;;;;;5041222;28;20037;-45
2021/12/25 12:05:21;;;;;;;0.63;0.47;;;18.00;53.30;;;;;;5037022;28;20125;-49
2021/12/25 12:07:58;;;;;;;1.95;0.60;;;18.00;53.30;;;;;;5038974;28;20033;-48
2021/12/25 12:10:52;;;;;;;0.80;0.80;;;18.00;53.30;;;;;;5034907;28;20088;-45
2021/12/25 12:13:37;;;;;;;1.88;0.50;;;18.00;53.30;;;;;;5046233;28;20045;-49
2021/12/25 12:16:38;;;;;;;2.35;0.70;;;18.00;53.30;;;;;;5004531;28;20092;-49
2021/12/25 12:19:42;;;;;;;0.60;0.60;;;18.00;53.30;;;;;;5004859;28;20046;-46
2021/12/25 12:22:42;;;;;;;0.60;0.30;;;18.00;53.30;;;;;;5001102;28;20046;-45
2021/12/25 12:25:24;;;;;;;1.63;0.95;;;18.00;53.30;;;;;;4998513;28;20053;-50
2021/12/25 12:27:53;;;;;;;0.75;0.75;;;18.00;53.30;;;;;;5004636;28;20049;-44
2021/12/25 12:30:50;;;;;;;0.95;0.95;;;18.00;53.30;;;;;;5006105;28;20053;-46
2021/12/25 12:33:39;;;;;;;1.27;0.75;;;18.00;53.30;;;;;;5006108;28;20046;-45
2021/12/25 12:36:27;;;;;;;1.38;0.50;;;18.00;53.30;;;;;;5002553;28;20054;-46
2021/12/25 12:39:13;;;;;;;0.40;0.40;;;18.00;53.40;;;;;;5005261;28;20185;-50
2021/12/25 12:41:51;;;;;;;0.25;0.25;;;18.00;53.30;;;;;;5004426;28;20057;-46
2021/12/25 12:44:27;;;;;;;1.35;0.60;;;18.00;53.40;;;;;;5000625;28;20046;-45
2021/12/25 12:46:58;;;;;;;;;;;18.00;53.40;;;;;;5004651;28;20120;-47
2021/12/25 12:49:28;;;;;;;1.27;0.50;;;17.90;53.20;;;;;;5004702;28;19926;-51
2021/12/25 12:52:34;;;;;;;0.93;0.50;;;17.90;53.40;;;;;;5002780;28;20152;-48
2021/12/25 12:55:04;;;;;;;1.70;0.60;;;18.00;53.40;;;;;;4989330;28;20042;-48
2021/12/25 12:57:34;;;;;;;0.68;0.65;;;17.90;53.40;;;;;;4989490;28;20117;-47
2021/12/25 13:00:05;;;;;;;0.47;0.47;;;18.00;53.40;;;;;;4990748;28;20065;-51
2021/12/25 13:02:40;;;;;;;0.65;0.50;;;18.00;53.40;;;;;;4996140;28;20062;-50
2021/12/25 13:05:07;;;;;;;1.40;0.30;;;18.00;53.40;;;;;;4991540;28;20053;-50
2021/12/25 13:07:38;;;;;;;2.42;0.55;;;18.00;53.40;;;;;;4992616;28;20052;-47
2021/12/25 13:10:17;;;;;;;0.75;0.68;;;18.00;53.40;;;;;;4990635;28;20050;-51
2021/12/25 13:12:46;;;;;;;0.93;0.40;;;18.00;53.40;;;;;;4993722;28;20205;-49
2021/12/25 13:15:17;;;;;;;0.70;0.50;;;18.00;53.40;;;;;;4991060;28;20125;-45
2021/12/25 13:17:53;;;;;;;0.30;0.28;;;18.00;53.40;;;;;;4974170;28;20042;-47
2021/12/25 13:20:33;;;;;;;2.38;0.55;;;18.00;53.40;;;;;;4996451;28;20046;-43
2021/12/25 13:23:05;;;;;;;0.80;0.63;;;18.00;53.40;;;;;;4991782;28;20078;-52
2021/12/25 13:25:33;;;;;;;1.30;0.40;;;18.00;53.40;;;;;;5004388;28;20048;-50
2021/12/25 13:28:02;;;;;;;0.47;0.45;;;18.00;53.40;;;;;;5032642;28;20037;-50
2021/12/25 13:30:31;;;;;;;0.68;0.68;;;18.00;53.40;;;;;;5034478;28;20065;-49
2021/12/25 13:33:08;;;;;;;0.40;0.30;;;18.00;53.50;;;;;;5045726;28;20119;-51
2021/12/25 13:35:35;;;;;;;0.60;0.60;;;18.00;53.40;;;;;;5034739;28;20049;-46
2021/12/25 13:38:04;;;;;;;0.63;0.47;;;18.00;53.40;;;;;;5038757;28;20503;-49
2021/12/25 13:40:31;;;;;;;0.40;0.30;;;18.00;53.40;;;;;;5034221;28;20037;-49
2021/12/25 13:43:05;;;;;;;1.20;0.52;;;18.00;53.40;;;;;;5031601;28;20032;-49
2021/12/25 13:45:33;;;;;;;0.80;0.57;;;18.00;53.40;;;;;;5030872;28;20453;-44
2021/12/25 13:48:01;;;;;;;1.25;0.35;;;18.00;53.50;;;;;;5039532;28;20048;-46
2021/12/25 13:50:28;;;;;;;1.73;0.52;;;18.00;53.40;;;;;;5034872;28;20042;-47
2021/12/25 13:52:59;;;;;;;0.65;0.50;;;18.00;53.40;;;;;;5035637;28;20033;-50
2021/12/25 13:55:30;;;;;;;2.47;0.60;;;18.00;53.50;;;;;;5038757;28;20123;-48
2021/12/25 13:58:00;;;;;;;2.63;0.40;;;18.00;53.50;;;;;;5029504;28;20049;-44
2021/12/25 14:00:30;;;;;;;0.88;0.45;;;18.00;53.50;;;;;;5032206;28;20046;-49
2021/12/25 14:03:01;;;;;;;0.88;0.43;;;18.00;53.50;;;;;;5034834;28;20044;-49
2021/12/25 14:05:30;;;;;;;0.88;0.40;;;18.00;53.50;;;;;;5040091;28;20037;-47
2021/12/25 14:07:57;;;;;;;0.77;0.55;;;18.00;53.50;;;;;;5037101;28;20502;-47
2021/12/25 14:10:26;;;;;;;0.70;0.63;;;18.00;53.50;;;;;;5043097;28;20044;-47
2021/12/25 14:12:57;;;;;;;1.17;0.98;;;18.00;53.50;;;;;;5034130;28;20049;-50